Time;durP1;ratioP1;P1;durP2;ratioP2;P2;SDS_P1;SDS_P2;PMS_P1;PMS_P2;Temp;Humidity;BMP_temperature;BMP_pressure;BME280_temperature;BME280_humidity;BME280_pressure;Samples;Min_cycle;Max_cycle;Signal;HPM_P1;HPM_P2
2024/02/15 00:00:26;;;;;;;17.08;8.60;;;14.00;99.90;;;;;;5103530;28;20036;-73
2024/02/15 00:02:52;;;;;;;24.20;9.05;;;14.00;99.90;;;;;;5100715;28;20040;-74
2024/02/15 00:05:18;;;;;;;14.13;6.43;;;14.00;99.90;;;;;;5096896;28;20034;-73
2024/02/15 00:07:43;;;;;;;20.73;8.05;;;14.10;99.90;;;;;;5089633;28;20043;-74
2024/02/15 00:10:09;;;;;;;19.20;6.80;;;14.00;99.90;;;;;;5089803;28;20406;-73
2024/02/15 00:12:35;;;;;;;22.50;9.27;;;14.10;99.90;;;;;;5090597;28;20035;-73
2024/02/15 00:15:01;;;;;;;22.20;7.43;;;14.00;99.90;;;;;;5101738;28;20050;-74
2024/02/15 00:17:30;;;;;;;21.10;7.85;;;14.10;99.90;;;;;;5104302;28;20031;-73
2024/02/15 00:19:56;;;;;;;15.43;6.70;;;14.10;99.90;;;;;;5089170;28;20042;-73
2024/02/15 00:22:22;;;;;;;19.70;6.57;;;14.10;99.90;;;;;;5089292;28;20032;-74
2024/02/15 00:24:50;;;;;;;11.35;5.30;;;14.10;99.90;;;;;;5089385;28;20066;-74
2024/02/15 00:27:16;;;;;;;17.70;7.28;;;14.10;99.90;;;;;;5089576;28;20040;-73
2024/02/15 00:29:42;;;;;;;11.63;4.13;;;14.10;99.90;;;;;;5107475;27;20021;-73
2024/02/15 00:32:10;;;;;;;10.35;4.68;;;14.20;99.90;;;;;;5097603;28;20040;-73
2024/02/15 00:34:38;;;;;;;10.30;3.88;;;14.20;99.90;;;;;;5089443;28;20036;-74
2024/02/15 00:37:04;;;;;;;14.88;5.85;;;14.20;99.90;;;;;;5088313;28;20097;-73
2024/02/15 00:39:31;;;;;;;10.48;5.50;;;14.20;99.90;;;;;;5095888;28;20028;-73
2024/02/15 00:41:57;;;;;;;22.52;7.50;;;14.20;99.90;;;;;;5088043;28;20612;-75
2024/02/15 00:44:23;;;;;;;8.10;4.97;;;14.20;99.90;;;;;;5090036;28;20111;-74
2024/02/15 00:46:49;;;;;;;21.08;6.10;;;14.20;99.90;;;;;;5087469;28;20103;-74
2024/02/15 00:49:14;;;;;;;12.90;5.10;;;14.20;99.90;;;;;;5096733;28;20047;-75
2024/02/15 00:51:40;;;;;;;6.70;3.90;;;14.20;99.90;;;;;;5088044;28;20462;-75
2024/02/15 00:54:06;;;;;;;11.80;3.90;;;14.20;99.90;;;;;;5097502;28;20032;-75
2024/02/15 00:56:32;;;;;;;12.63;6.20;;;14.20;99.90;;;;;;5088084;28;20486;-75
2024/02/15 00:59:01;;;;;;;22.70;5.68;;;14.20;99.90;;;;;;5096157;28;20114;-74
2024/02/15 01:01:27;;;;;;;9.93;4.32;;;14.20;99.90;;;;;;5090697;28;20027;-75
2024/02/15 01:03:52;;;;;;;12.02;4.78;;;14.20;99.90;;;;;;5103970;28;20823;-74
2024/02/15 01:06:18;;;;;;;7.72;3.97;;;14.30;99.90;;;;;;5096211;28;20031;-74
2024/02/15 01:08:44;;;;;;;17.77;6.90;;;14.30;99.90;;;;;;5091340;28;20097;-74
2024/02/15 01:11:10;;;;;;;17.08;6.90;;;14.30;99.90;;;;;;5090458;28;20134;-74
2024/02/15 01:13:36;;;;;;;9.25;5.53;;;14.20;99.90;;;;;;5092400;28;20028;-74
2024/02/15 01:16:04;;;;;;;23.95;5.88;;;14.20;99.90;;;;;;5096332;28;20043;-75
2024/02/15 01:18:31;;;;;;;12.40;4.07;;;14.20;99.90;;;;;;5093924;28;20102;-74
2024/02/15 01:20:57;;;;;;;7.30;3.65;;;14.20;99.90;;;;;;5107690;28;20394;-75
2024/02/15 01:23:23;;;;;;;10.63;3.30;;;14.20;99.90;;;;;;5088502;28;20043;-75
2024/02/15 01:25:49;;;;;;;6.38;3.08;;;14.20;99.90;;;;;;5099034;28;20020;-74
2024/02/15 01:28:14;;;;;;;24.15;5.78;;;14.20;99.90;;;;;;5093663;27;20475;-74
2024/02/15 01:30:43;;;;;;;24.00;5.53;;;14.30;99.90;;;;;;5109510;27;20109;-75
2024/02/15 01:33:12;;;;;;;14.95;5.10;;;14.30;99.90;;;;;;5089772;28;20040;-74
2024/02/15 01:35:38;;;;;;;14.18;5.25;;;14.30;99.90;;;;;;5090540;28;20108;-74
2024/02/15 01:38:07;;;;;;;8.00;3.78;;;14.30;99.90;;;;;;5091419;28;20059;-74
2024/02/15 01:40:32;;;;;;;23.70;7.25;;;14.30;99.90;;;;;;5101755;28;20043;-74
2024/02/15 01:42:58;;;;;;;12.93;5.47;;;14.40;99.90;;;;;;5087971;28;20109;-74
2024/02/15 01:45:28;;;;;;;12.48;5.10;;;14.40;99.90;;;;;;5092955;28;20020;-74
2024/02/15 01:47:54;;;;;;;5.53;3.22;;;14.40;99.90;;;;;;5087793;28;20039;-74
2024/02/15 01:50:21;;;;;;;13.02;5.72;;;14.40;99.90;;;;;;5094206;28;20043;-74
2024/02/15 01:52:49;;;;;;;17.25;5.55;;;14.40;99.90;;;;;;5091603;28;20024;-74
2024/02/15 01:55:18;;;;;;;15.18;5.15;;;14.40;99.90;;;;;;5096836;28;20047;-74
2024/02/15 01:57:48;;;;;;;13.50;6.47;;;14.40;99.90;;;;;;5101344;28;20446;-75
2024/02/15 02:00:17;;;;;;;13.95;5.53;;;14.30;99.90;;;;;;5099038;28;20115;-75
2024/02/15 02:02:49;;;;;;;10.88;4.68;;;14.30;99.90;;;;;;5092885;28;20093;-74
2024/02/15 02:05:14;;;;;;;12.27;4.40;;;14.30;99.90;;;;;;5106696;28;20030;-74
2024/02/15 02:07:40;;;;;;;5.88;4.03;;;14.30;99.90;;;;;;5107626;28;20118;-74
2024/02/15 02:10:07;;;;;;;18.13;4.85;;;14.30;99.90;;;;;;5092031;28;20070;-74
2024/02/15 02:12:33;;;;;;;6.60;3.65;;;14.30;99.90;;;;;;5104447;28;20039;-74
2024/02/15 02:14:59;;;;;;;13.13;4.65;;;14.30;99.90;;;;;;5104991;28;20533;-74
2024/02/15 02:17:24;;;;;;;14.00;5.00;;;14.30;99.90;;;;;;5092868;28;20074;-74
2024/02/15 02:19:50;;;;;;;8.38;4.57;;;14.30;99.90;;;;;;5097149;28;20039;-74
2024/02/15 02:22:17;;;;;;;7.22;4.03;;;14.30;99.90;;;;;;5111808;28;20035;-74
2024/02/15 02:25:18;;;;;;;12.25;6.07;;;14.30;99.90;;;;;;5090724;28;20063;-75
2024/02/15 02:27:44;;;;;;;9.60;4.93;;;14.30;99.90;;;;;;5022556;28;20068;-74
2024/02/15 02:30:21;;;;;;;9.85;5.43;;;14.30;99.90;;;;;;5086658;28;20112;-75
2024/02/15 02:32:48;;;;;;;15.57;5.07;;;14.30;99.90;;;;;;5129244;27;20027;-74
2024/02/15 02:35:15;;;;;;;16.05;4.93;;;14.30;99.90;;;;;;5107097;27;20543;-74
2024/02/15 02:37:42;;;;;;;11.85;4.97;;;14.30;99.90;;;;;;5097367;28;20032;-74
2024/02/15 02:40:09;;;;;;;9.13;4.32;;;14.30;99.90;;;;;;5119400;27;20035;-74
2024/02/15 02:42:59;;;;;;;7.20;4.05;;;14.30;99.90;;;;;;5091952;28;20024;-75
2024/02/15 02:45:25;;;;;;;4.78;2.85;;;14.30;99.90;;;;;;5094345;28;20084;-75
2024/02/15 02:47:52;;;;;;;15.60;6.47;;;14.20;99.90;;;;;;5095815;28;20028;-74
2024/02/15 02:50:19;;;;;;;10.20;5.07;;;14.20;99.90;;;;;;5099883;28;20055;-74
2024/02/15 02:52:45;;;;;;;8.20;4.50;;;14.20;99.90;;;;;;5093117;28;20130;-74
2024/02/15 02:55:11;;;;;;;10.23;4.03;;;14.20;99.90;;;;;;5099699;28;20061;-74
2024/02/15 02:57:37;;;;;;;5.05;2.90;;;14.20;99.90;;;;;;5096783;28;20106;-74
2024/02/15 03:00:12;;;;;;;5.63;2.40;;;14.30;99.90;;;;;;5094250;28;20169;-74
2024/02/15 03:02:38;;;;;;;16.27;5.82;;;14.30;99.90;;;;;;5094950;28;20042;-74
2024/02/15 03:05:05;;;;;;;7.22;4.35;;;14.30;99.90;;;;;;5102131;28;20153;-74
2024/02/15 03:07:40;;;;;;;13.20;4.90;;;14.30;99.90;;;;;;5100716;28;20035;-74
2024/02/15 03:10:08;;;;;;;9.13;4.38;;;14.30;99.90;;;;;;5106707;28;20039;-75
2024/02/15 03:12:37;;;;;;;11.25;4.28;;;14.30;99.90;;;;;;5097089;28;20492;-74
2024/02/15 03:15:04;;;;;;;14.68;4.90;;;14.30;99.90;;;;;;5103946;28;20058;-74
2024/02/15 03:17:31;;;;;;;11.68;4.85;;;14.30;99.90;;;;;;5110763;28;20016;-74
2024/02/15 03:19:58;;;;;;;11.02;4.00;;;14.30;99.90;;;;;;5096214;27;20067;-75
2024/02/15 03:22:25;;;;;;;11.13;3.55;;;14.20;99.90;;;;;;5115279;27;20027;-74
2024/02/15 03:24:52;;;;;;;10.18;3.15;;;14.20;99.90;;;;;;5096586;28;20039;-74
2024/02/15 03:27:22;;;;;;;14.68;5.38;;;14.30;99.90;;;;;;5102004;28;20045;-74
2024/02/15 03:29:49;;;;;;;9.45;2.88;;;14.30;99.90;;;;;;5097607;28;20040;-74
2024/02/15 03:32:14;;;;;;;5.43;3.25;;;14.20;99.90;;;;;;5094318;28;20031;-74
2024/02/15 03:34:42;;;;;;;11.25;4.72;;;14.20;99.90;;;;;;5102206;28;20043;-74
2024/02/15 03:37:09;;;;;;;8.52;4.22;;;14.20;99.90;;;;;;5100710;28;20027;-74
2024/02/15 03:39:35;;;;;;;8.80;3.58;;;14.20;99.90;;;;;;5104221;28;20032;-74
2024/02/15 03:42:00;;;;;;;6.07;3.60;;;14.30;99.90;;;;;;5099392;28;20387;-74
2024/02/15 03:44:27;;;;;;;7.50;3.30;;;14.20;99.90;;;;;;5093673;28;20092;-75
2024/02/15 03:46:53;;;;;;;9.15;2.85;;;14.30;99.90;;;;;;5098143;28;20481;-74
2024/02/15 03:49:19;;;;;;;4.47;2.92;;;14.30;99.90;;;;;;5102603;28;20059;-75
2024/02/15 03:51:45;;;;;;;5.65;2.72;;;14.30;99.90;;;;;;5099151;28;20036;-74
2024/02/15 03:54:13;;;;;;;8.88;3.53;;;14.30;99.90;;;;;;5092656;28;20070;-74
2024/02/15 03:56:52;;;;;;;2.45;2.00;;;14.40;99.90;;;;;;5090542;28;20031;-74
2024/02/15 03:59:26;;;;;;;5.90;2.58;;;14.40;99.90;;;;;;5089853;28;20067;-74
2024/02/15 04:01:52;;;;;;;;;;;14.40;99.90;;;;;;5093354;28;20035;-74
2024/02/15 04:04:21;;;;;;;14.55;4.05;;;14.40;99.90;;;;;;5094722;28;19973;-74
2024/02/15 04:06:48;;;;;;;14.90;3.92;;;14.40;99.90;;;;;;5101982;28;20034;-74
2024/02/15 04:09:13;;;;;;;5.50;2.15;;;14.40;99.90;;;;;;5089357;28;20028;-74
2024/02/15 04:11:43;;;;;;;3.55;2.00;;;14.40;99.90;;;;;;5103744;28;20035;-75
2024/02/15 04:14:09;;;;;;;18.88;4.70;;;14.50;99.90;;;;;;5090782;28;20036;-74
2024/02/15 04:16:35;;;;;;;8.70;2.55;;;14.50;99.90;;;;;;5089861;28;20477;-74
2024/02/15 04:19:02;;;;;;;8.48;3.65;;;14.60;99.90;;;;;;5088315;28;20028;-74
2024/02/15 04:21:28;;;;;;;9.93;4.13;;;14.50;99.90;;;;;;5089855;28;20039;-74
2024/02/15 04:23:54;;;;;;;8.38;3.10;;;14.60;99.90;;;;;;5089012;28;20407;-74
2024/02/15 04:26:20;;;;;;;17.33;4.25;;;14.60;99.90;;;;;;5089740;28;20035;-74
2024/02/15 04:28:48;;;;;;;9.93;6.68;;;14.60;99.90;;;;;;5099734;28;20501;-74
2024/02/15 04:31:15;;;;;;;8.77;4.22;;;14.60;99.90;;;;;;5090872;28;20032;-74
2024/02/15 04:33:43;;;;;;;20.98;5.32;;;14.60;99.90;;;;;;5097794;28;20039;-74
2024/02/15 04:36:09;;;;;;;11.10;4.38;;;14.60;99.90;;;;;;5092514;28;20374;-74
2024/02/15 04:38:35;;;;;;;8.63;3.38;;;14.60;99.90;;;;;;5096440;28;20027;-74
2024/02/15 04:41:09;;;;;;;12.13;3.65;;;14.60;99.90;;;;;;5094922;28;20542;-74
2024/02/15 04:43:37;;;;;;;20.38;5.93;;;14.70;99.90;;;;;;5102132;28;20765;-75
2024/02/15 04:46:07;;;;;;;14.05;4.45;;;14.70;99.90;;;;;;5090014;28;20107;-74
2024/02/15 04:48:34;;;;;;;22.23;6.40;;;14.70;99.90;;;;;;5087460;28;20097;-75
2024/02/15 04:51:01;;;;;;;5.28;2.70;;;14.70;99.90;;;;;;5100420;28;20111;-74
2024/02/15 04:53:29;;;;;;;9.65;2.65;;;14.70;99.90;;;;;;5089901;28;20028;-75
2024/02/15 04:56:00;;;;;;;8.07;2.35;;;14.80;99.90;;;;;;5095135;28;20044;-74
2024/02/15 04:58:28;;;;;;;6.05;2.17;;;14.70;99.90;;;;;;5094059;28;20027;-75
2024/02/15 05:00:59;;;;;;;22.45;7.60;;;14.70;99.90;;;;;;5099697;28;20039;-75
2024/02/15 05:03:24;;;;;;;11.85;3.15;;;14.80;99.90;;;;;;5092805;28;20019;-74
2024/02/15 05:05:53;;;;;;;20.55;5.88;;;14.80;99.90;;;;;;5097191;28;20039;-74
2024/02/15 05:08:18;;;;;;;17.20;5.20;;;14.80;99.90;;;;;;5089108;28;20036;-75
2024/02/15 05:10:45;;;;;;;18.70;6.32;;;14.80;99.90;;;;;;5102566;28;20023;-75
2024/02/15 05:13:13;;;;;;;24.85;5.95;;;14.80;99.90;;;;;;5092452;28;20124;-75
2024/02/15 05:15:39;;;;;;;23.70;6.50;;;14.90;99.90;;;;;;5099259;28;20131;-75
2024/02/15 05:18:08;;;;;;;35.30;7.50;;;14.90;99.90;;;;;;5096691;28;20115;-77
2024/02/15 05:20:34;;;;;;;18.05;7.72;;;15.00;99.90;;;;;;5095677;28;20038;-76
2024/02/15 05:23:00;;;;;;;14.50;5.85;;;15.00;99.90;;;;;;5093568;28;20028;-76
2024/02/15 05:25:26;;;;;;;22.70;7.18;;;15.00;99.90;;;;;;5094967;28;20485;-75
2024/02/15 05:27:53;;;;;;;23.33;7.22;;;15.10;99.90;;;;;;5094842;28;20039;-76
2024/02/15 05:30:19;;;;;;;25.73;9.27;;;15.10;99.90;;;;;;5094673;28;20039;-76
2024/02/15 05:32:47;;;;;;;20.98;9.05;;;15.20;99.90;;;;;;5108033;28;20031;-76
2024/02/15 05:35:14;;;;;;;18.88;7.35;;;15.20;99.90;;;;;;5102403;28;20074;-76
2024/02/15 05:37:40;;;;;;;20.25;7.35;;;15.20;99.90;;;;;;5089128;28;20047;-76
2024/02/15 05:40:14;;;;;;;27.42;9.02;;;15.30;99.90;;;;;;5090149;28;20023;-76
2024/02/15 05:42:46;;;;;;;18.65;9.02;;;15.30;99.90;;;;;;5100196;28;20110;-76
2024/02/15 05:45:32;;;;;;;17.00;8.20;;;15.30;99.90;;;;;;5104409;28;20051;-75
2024/02/15 05:47:58;;;;;;;19.98;8.50;;;15.30;99.90;;;;;;5087670;28;20036;-75
2024/02/15 05:50:29;;;;;;;23.90;9.07;;;15.30;99.90;;;;;;5087956;28;20063;-74
2024/02/15 05:52:55;;;;;;;12.88;6.38;;;15.30;99.90;;;;;;5089083;28;20468;-74
2024/02/15 05:55:20;;;;;;;20.10;7.35;;;15.30;99.90;;;;;;5091567;28;20044;-75
2024/02/15 05:57:48;;;;;;;11.32;5.90;;;15.30;99.90;;;;;;5100018;28;20102;-75
2024/02/15 06:00:18;;;;;;;9.45;4.90;;;15.20;99.90;;;;;;5098912;28;20028;-75
2024/02/15 06:02:44;;;;;;;24.95;11.68;;;15.30;99.90;;;;;;5094364;28;20067;-75
2024/02/15 06:05:10;;;;;;;19.85;9.75;;;15.20;99.90;;;;;;5103027;28;20063;-74
2024/02/15 06:07:36;;;;;;;17.58;8.63;;;15.20;99.90;;;;;;5094606;28;20039;-74
2024/02/15 06:10:03;;;;;;;18.15;8.48;;;15.20;99.90;;;;;;5102307;28;20019;-73
2024/02/15 06:12:34;;;;;;;18.95;8.77;;;15.20;99.90;;;;;;5091999;28;20024;-74
2024/02/15 06:14:59;;;;;;;15.30;7.13;;;15.20;99.90;;;;;;5086548;28;20051;-74
2024/02/15 06:17:25;;;;;;;19.35;10.10;;;15.30;99.90;;;;;;5099875;28;20499;-74
2024/02/15 06:19:51;;;;;;;19.52;9.65;;;15.30;99.90;;;;;;5088057;28;20118;-74
2024/02/15 06:22:16;;;;;;;14.60;4.95;;;15.30;99.90;;;;;;5087265;28;20024;-75
2024/02/15 06:24:42;;;;;;;12.10;6.28;;;15.30;99.90;;;;;;5088697;28;20028;-74
2024/02/15 06:27:07;;;;;;;30.60;11.77;;;15.30;99.90;;;;;;5089259;28;20463;-74
2024/02/15 06:40:30;;;;;;;7.93;4.97;;;15.20;99.90;;;;;;5090606;28;20038;-74
2024/02/15 06:42:56;;;;;;;24.25;11.10;;;15.10;99.90;;;;;;5097440;28;20024;-74
2024/02/15 06:45:22;;;;;;;12.65;5.80;;;15.10;99.90;;;;;;5087789;28;20376;-74
2024/02/15 06:47:48;;;;;;;15.02;8.00;;;15.20;99.90;;;;;;5094851;28;20031;-75
2024/02/15 06:50:14;;;;;;;21.08;6.88;;;15.10;99.90;;;;;;5100305;28;20514;-74
2024/02/15 06:52:41;;;;;;;23.75;10.43;;;15.20;99.90;;;;;;5100817;28;20035;-75
2024/02/15 06:55:08;;;;;;;16.98;7.82;;;15.10;99.90;;;;;;5095605;28;20052;-75
2024/02/15 06:57:37;;;;;;;17.10;7.45;;;15.10;99.90;;;;;;5090436;28;20380;-75
2024/02/15 07:00:07;;;;;;;13.27;5.85;;;15.10;99.90;;;;;;5090624;28;20039;-76
2024/02/15 07:02:33;;;;;;;13.32;7.72;;;15.00;99.90;;;;;;5101582;28;20100;-75
2024/02/15 07:04:59;;;;;;;12.30;7.15;;;15.00;99.90;;;;;;5092896;28;20425;-74
2024/02/15 07:07:25;;;;;;;27.05;12.50;;;15.00;99.90;;;;;;5093969;28;20032;-74
2024/02/15 07:09:51;;;;;;;14.95;7.15;;;15.00;99.90;;;;;;5088752;28;20486;-74
2024/02/15 07:12:16;;;;;;;23.23;10.60;;;15.00;99.90;;;;;;5095782;28;20027;-74
2024/02/15 07:14:43;;;;;;;20.42;11.05;;;15.10;99.90;;;;;;5102006;28;20039;-74
2024/02/15 07:17:08;;;;;;;11.80;7.35;;;15.00;99.90;;;;;;5100223;28;20474;-74
2024/02/15 07:19:36;;;;;;;18.23;8.13;;;15.00;99.90;;;;;;5094749;28;20077;-74
2024/02/15 07:22:02;;;;;;;18.17;10.45;;;15.00;99.90;;;;;;5091428;28;20032;-74
2024/02/15 07:24:28;;;;;;;18.85;11.80;;;15.00;99.90;;;;;;5091850;28;20036;-74
2024/02/15 07:26:55;;;;;;;19.25;9.98;;;15.10;99.90;;;;;;5089652;28;20036;-74
2024/02/15 07:29:23;;;;;;;21.67;11.68;;;15.10;99.90;;;;;;5101546;28;20078;-74
2024/02/15 07:31:49;;;;;;;25.40;13.32;;;15.10;99.90;;;;;;5100326;28;20118;-74
2024/02/15 07:34:15;;;;;;;22.95;11.63;;;15.10;99.90;;;;;;5097121;28;20090;-75
2024/02/15 07:36:42;;;;;;;9.55;6.43;;;15.20;99.90;;;;;;5094272;28;20065;-75
2024/02/15 07:39:12;;;;;;;34.67;14.48;;;15.20;99.90;;;;;;5089126;28;20031;-75
2024/02/15 07:41:38;;;;;;;25.48;13.82;;;15.20;99.90;;;;;;5097420;28;20125;-75
2024/02/15 07:44:04;;;;;;;26.88;13.50;;;15.30;99.90;;;;;;5089913;28;20036;-75
2024/02/15 07:46:30;;;;;;;27.65;14.98;;;15.30;99.90;;;;;;5089856;28;20024;-75
2024/02/15 07:48:55;;;;;;;11.15;4.35;;;15.30;99.90;;;;;;5094081;28;20039;-75
2024/02/15 07:51:22;;;;;;;29.08;15.80;;;15.40;99.90;;;;;;5092022;28;20455;-75
2024/02/15 07:53:49;;;;;;;25.25;14.55;;;15.40;99.90;;;;;;5103670;28;20794;-74
2024/02/15 07:56:18;;;;;;;21.98;14.07;;;15.40;99.90;;;;;;5100960;28;20039;-76
2024/02/15 07:58:46;;;;;;;23.48;12.70;;;15.50;99.90;;;;;;5105304;28;20040;-76
2024/02/15 08:01:16;;;;;;;26.40;13.00;;;15.50;99.90;;;;;;5096120;28;20404;-74
2024/02/15 08:03:45;;;;;;;22.15;12.10;;;15.50;99.90;;;;;;5095408;28;20055;-75
2024/02/15 08:06:12;;;;;;;24.70;13.73;;;15.50;99.90;;;;;;5104010;28;20043;-75
2024/02/15 08:08:42;;;;;;;17.33;9.05;;;15.50;99.90;;;;;;5096209;28;20024;-75
2024/02/15 08:11:14;;;;;;;23.02;11.13;;;15.50;99.90;;;;;;5098949;28;20049;-75
2024/02/15 08:13:53;;;;;;;25.02;9.40;;;15.50;99.90;;;;;;5096960;28;20073;-76
2024/02/15 08:16:22;;;;;;;19.38;10.15;;;15.50;99.90;;;;;;5095375;28;20383;-74
2024/02/15 08:18:52;;;;;;;24.65;13.52;;;15.50;99.90;;;;;;5095144;28;20114;-73
2024/02/15 08:21:17;;;;;;;6.53;3.85;;;15.50;99.90;;;;;;5091881;28;20081;-74
2024/02/15 08:23:43;;;;;;;13.68;7.68;;;15.50;99.90;;;;;;5097638;28;20032;-74
2024/02/15 08:26:12;;;;;;;15.25;8.57;;;15.40;99.90;;;;;;5088432;28;20028;-74
2024/02/15 08:28:38;;;;;;;17.05;9.25;;;15.40;99.90;;;;;;5100699;28;20111;-74
2024/02/15 08:31:04;;;;;;;13.05;7.78;;;15.40;99.90;;;;;;5106258;28;20156;-74
2024/02/15 08:33:30;;;;;;;18.80;8.27;;;15.30;99.90;;;;;;5096624;28;20455;-74
2024/02/15 08:35:56;;;;;;;16.73;8.82;;;15.40;99.90;;;;;;5090846;28;20143;-73
2024/02/15 08:38:22;;;;;;;13.05;5.55;;;15.40;99.90;;;;;;5105816;28;20023;-74
2024/02/15 08:40:48;;;;;;;22.90;12.30;;;15.40;99.90;;;;;;5105485;28;20036;-74
2024/02/15 08:43:15;;;;;;;21.35;9.52;;;15.40;99.90;;;;;;5101794;28;20034;-75
2024/02/15 08:45:44;;;;;;;11.57;7.03;;;15.40;99.90;;;;;;5090054;28;20533;-73
2024/02/15 08:48:11;;;;;;;23.83;11.20;;;15.40;99.90;;;;;;5095132;28;20032;-74
2024/02/15 08:50:36;;;;;;;17.17;8.68;;;15.50;99.90;;;;;;5099463;28;20077;-77
2024/02/15 08:53:06;;;;;;;16.15;8.32;;;15.50;99.90;;;;;;5089689;28;20016;-75
2024/02/15 08:55:32;;;;;;;20.77;12.48;;;15.40;99.90;;;;;;5089272;28;20128;-75
2024/02/15 08:57:59;;;;;;;17.30;10.32;;;15.40;99.90;;;;;;5090692;28;20467;-76
2024/02/15 09:00:26;;;;;;;12.57;6.95;;;15.50;99.90;;;;;;5092712;28;20079;-74
2024/02/15 09:02:52;;;;;;;15.65;7.45;;;15.50;99.90;;;;;;5089888;28;20395;-75
2024/02/15 09:05:18;;;;;;;22.60;8.75;;;15.60;99.90;;;;;;5096536;28;20501;-75
2024/02/15 09:07:50;;;;;;;17.60;10.35;;;15.60;99.90;;;;;;5098398;28;20039;-75
2024/02/15 09:10:19;;;;;;;15.98;7.90;;;15.60;99.90;;;;;;5091669;28;20152;-74
2024/02/15 09:12:48;;;;;;;13.68;7.25;;;15.60;99.90;;;;;;5099509;28;20030;-72
2024/02/15 09:15:14;;;;;;;14.95;8.60;;;15.70;99.90;;;;;;5086563;28;20051;-75
2024/02/15 09:17:40;;;;;;;16.27;8.90;;;15.60;99.90;;;;;;5088863;28;20065;-73
2024/02/15 09:20:14;;;;;;;16.23;7.68;;;15.60;99.90;;;;;;5097744;28;20027;-75
2024/02/15 09:22:40;;;;;;;;;;;15.70;99.90;;;;;;5100159;28;20119;-75
2024/02/15 09:25:07;;;;;;;13.52;8.25;;;15.60;99.90;;;;;;5087878;28;20359;-75
2024/02/15 09:27:32;;;;;;;20.38;7.25;;;15.60;99.90;;;;;;5094601;28;20038;-75
2024/02/15 09:29:58;;;;;;;13.15;7.72;;;15.60;99.90;;;;;;5088952;28;20043;-75
2024/02/15 09:32:24;;;;;;;14.27;7.03;;;15.70;99.90;;;;;;5098499;28;20081;-75
2024/02/15 09:34:49;;;;;;;13.85;8.02;;;15.70;99.90;;;;;;5097832;28;20475;-75
2024/02/15 09:37:15;;;;;;;11.55;6.43;;;15.70;99.90;;;;;;5091700;28;20024;-75
2024/02/15 09:39:41;;;;;;;13.32;4.47;;;15.70;99.90;;;;;;5107927;28;20046;-75
2024/02/15 09:42:06;;;;;;;13.00;7.00;;;15.70;99.90;;;;;;5089803;28;20032;-75
2024/02/15 09:44:32;;;;;;;6.20;3.28;;;15.70;99.90;;;;;;5097206;28;20085;-75
2024/02/15 09:47:05;;;;;;;12.00;6.82;;;15.70;99.90;;;;;;5088148;28;20081;-75
2024/02/15 09:49:39;;;;;;;13.30;8.30;;;15.70;99.90;;;;;;5092724;28;20094;-75
2024/02/15 09:52:15;;;;;;;13.00;7.07;;;15.70;99.90;;;;;;5088900;28;20061;-75
2024/02/15 09:54:44;;;;;;;17.73;6.25;;;15.70;99.90;;;;;;5087766;28;20089;-75
2024/02/15 09:57:11;;;;;;;9.38;4.90;;;15.70;99.90;;;;;;5088403;28;20032;-75
2024/02/15 09:59:37;;;;;;;7.50;5.05;;;15.70;99.90;;;;;;5099811;28;20039;-75
2024/02/15 10:02:09;;;;;;;10.68;5.90;;;15.70;99.90;;;;;;5093781;28;20024;-75
2024/02/15 10:04:35;;;;;;;9.05;5.05;;;15.70;99.90;;;;;;5100502;28;20035;-75
2024/02/15 10:07:00;;;;;;;12.05;6.15;;;15.70;99.90;;;;;;5088969;28;20024;-74
2024/02/15 10:09:28;;;;;;;5.97;4.53;;;15.70;99.90;;;;;;5090630;28;20047;-75
2024/02/15 10:11:58;;;;;;;11.68;6.85;;;15.70;99.90;;;;;;5108953;28;20032;-76
2024/02/15 10:14:25;;;;;;;7.85;5.07;;;15.70;99.90;;;;;;5102616;28;20471;-73
2024/02/15 10:16:53;;;;;;;12.90;5.72;;;15.70;99.90;;;;;;5089270;28;20119;-74
2024/02/15 10:19:20;;;;;;;10.00;6.47;;;15.70;99.90;;;;;;5101863;28;20404;-74
2024/02/15 10:21:46;;;;;;;12.25;6.28;;;15.70;99.90;;;;;;5108899;27;20486;-73
2024/02/15 10:24:12;;;;;;;8.52;4.10;;;15.70;99.90;;;;;;5103985;28;20069;-73
2024/02/15 10:26:37;;;;;;;6.43;3.78;;;15.70;99.90;;;;;;5099633;28;20039;-73
2024/02/15 10:29:11;;;;;;;12.75;5.75;;;15.70;99.90;;;;;;5105255;28;20062;-73
2024/02/15 10:31:40;;;;;;;9.95;4.95;;;15.70;99.90;;;;;;5092486;28;20077;-73
2024/02/15 10:34:07;;;;;;;8.15;5.32;;;15.70;99.90;;;;;;5104104;28;20066;-73
2024/02/15 10:36:34;;;;;;;7.32;5.68;;;15.70;99.90;;;;;;5090932;28;20475;-73
2024/02/15 10:39:19;;;;;;;9.90;6.18;;;15.80;99.90;;;;;;5091138;28;20039;-74
2024/02/15 10:41:57;;;;;;;11.30;6.32;;;15.70;99.90;;;;;;5098795;28;20039;-74
2024/02/15 10:44:25;;;;;;;12.15;5.50;;;15.80;99.90;;;;;;5105622;28;20035;-74
2024/02/15 10:46:52;;;;;;;9.25;5.20;;;15.80;99.90;;;;;;5104805;28;20036;-74
2024/02/15 10:49:28;;;;;;;13.20;7.15;;;15.80;99.90;;;;;;5094965;28;20085;-74
2024/02/15 10:52:04;;;;;;;9.30;6.15;;;15.90;99.90;;;;;;5093219;28;20043;-74
2024/02/15 10:54:47;;;;;;;14.98;5.18;;;15.90;99.90;;;;;;5104037;28;20047;-73
2024/02/15 10:57:16;;;;;;;9.90;5.35;;;15.90;99.90;;;;;;5108972;28;20094;-74
2024/02/15 10:59:53;;;;;;;9.18;5.45;;;15.90;99.90;;;;;;5096034;28;20039;-74
2024/02/15 11:02:29;;;;;;;10.95;5.35;;;16.00;99.90;;;;;;5092559;28;20064;-74
2024/02/15 11:05:02;;;;;;;14.63;6.75;;;16.00;99.90;;;;;;5105833;28;20023;-73
2024/02/15 11:07:28;;;;;;;9.02;4.60;;;16.00;99.90;;;;;;5094009;28;20032;-73
2024/02/15 11:09:55;;;;;;;9.32;4.20;;;16.00;99.90;;;;;;5095400;28;20122;-73
2024/02/15 11:12:23;;;;;;;8.45;4.05;;;16.00;99.90;;;;;;5092345;28;20028;-73
2024/02/15 11:14:51;;;;;;;7.32;3.13;;;16.00;99.90;;;;;;5099042;28;20044;-73
2024/02/15 11:17:39;;;;;;;6.57;3.53;;;16.00;99.90;;;;;;5089192;28;20304;-73
2024/02/15 11:20:10;;;;;;;7.07;4.50;;;16.00;99.90;;;;;;5085669;28;20035;-74
2024/02/15 11:22:37;;;;;;;7.85;3.70;;;16.00;99.90;;;;;;5092955;28;20051;-74
2024/02/15 11:25:08;;;;;;;6.10;3.65;;;16.00;99.90;;;;;;5104292;28;20058;-74
2024/02/15 11:27:37;;;;;;;4.05;2.50;;;16.10;99.90;;;;;;5099927;28;20035;-74
2024/02/15 11:30:09;;;;;;;6.20;2.95;;;16.00;99.90;;;;;;5105188;28;20114;-74
2024/02/15 11:32:34;;;;;;;7.28;4.07;;;16.00;99.90;;;;;;5089226;28;20024;-73
2024/02/15 11:35:17;;;;;;;6.03;3.65;;;16.00;99.90;;;;;;5094945;28;20414;-74
2024/02/15 11:40:24;;;;;;;4.25;2.28;;;15.90;99.90;;;;;;5088327;28;20305;-76
2024/02/15 11:42:54;;;;;;;6.30;3.88;;;15.90;99.90;;;;;;5094673;28;20536;-74
2024/02/15 11:45:20;;;;;;;5.20;2.35;;;16.00;99.90;;;;;;5098272;28;20035;-74
2024/02/15 11:47:51;;;;;;;5.43;3.00;;;15.90;99.90;;;;;;5101299;28;20502;-74
2024/02/15 11:50:21;;;;;;;8.27;3.40;;;15.90;99.90;;;;;;5102705;28;20043;-74
2024/02/15 11:52:51;;;;;;;3.65;2.58;;;16.00;99.90;;;;;;5105700;28;20036;-74
2024/02/15 11:55:23;;;;;;;4.80;2.10;;;16.00;99.90;;;;;;5098483;28;20040;-74
2024/02/15 11:58:16;;;;;;;3.35;2.15;;;16.00;99.90;;;;;;5091086;28;20039;-74
2024/02/15 12:19:57;;;;;;;9.15;3.17;;;16.00;99.90;;;;;;5094192;28;20550;-74
2024/02/15 12:22:28;;;;;;;11.88;6.30;;;16.10;99.90;;;;;;5097496;28;20019;-75
2024/02/15 12:24:58;;;;;;;41.53;15.35;;;16.10;99.90;;;;;;5093922;28;20044;-75
2024/02/15 12:27:27;;;;;;;11.32;6.72;;;16.20;99.90;;;;;;5092651;28;20020;-76
2024/02/15 12:29:57;;;;;;;7.97;5.15;;;16.20;99.90;;;;;;5090927;28;20032;-74
2024/02/15 12:32:25;;;;;;;3.10;1.30;;;16.20;99.90;;;;;;5094394;28;20030;-80
2024/02/15 12:34:51;;;;;;;3.33;1.33;;;16.20;99.90;;;;;;5102157;28;20036;-75
2024/02/15 12:37:20;;;;;;;3.30;2.50;;;16.20;99.90;;;;;;5100606;28;20032;-75
2024/02/15 12:39:50;;;;;;;1.60;1.23;;;16.20;99.90;;;;;;5096030;28;20031;-75
2024/02/15 12:42:20;;;;;;;2.03;1.35;;;16.20;99.90;;;;;;5089249;28;20036;-75
2024/02/15 12:44:47;;;;;;;1.55;1.08;;;16.10;99.90;;;;;;5087034;28;20052;-75
2024/02/15 12:47:21;;;;;;;2.30;1.25;;;16.10;99.90;;;;;;5089194;28;20104;-75
2024/02/15 12:49:50;;;;;;;1.60;1.50;;;16.00;99.90;;;;;;5108737;28;20051;-74
2024/02/15 12:52:35;;;;;;;1.05;0.65;;;16.00;99.90;;;;;;5092253;28;20506;-75
2024/02/15 12:55:12;;;;;;;3.45;1.50;;;15.90;99.90;;;;;;5091836;28;20039;-75
2024/02/15 12:57:42;;;;;;;1.60;1.13;;;15.90;99.90;;;;;;5097926;28;20039;-75
2024/02/15 13:00:19;;;;;;;1.60;1.40;;;15.90;99.90;;;;;;5106815;28;20451;-75
2024/02/15 13:02:48;;;;;;;1.17;1.08;;;15.90;99.90;;;;;;5106512;28;20031;-75
2024/02/15 13:05:15;;;;;;;1.65;1.38;;;15.90;99.90;;;;;;5100882;28;20536;-75
2024/02/15 13:07:40;;;;;;;2.15;1.77;;;15.90;99.90;;;;;;5090203;28;20043;-75
2024/02/15 13:10:07;;;;;;;1.83;1.27;;;15.90;99.90;;;;;;5102258;28;20020;-75
2024/02/15 13:12:34;;;;;;;2.38;1.75;;;15.90;99.90;;;;;;5089232;28;20035;-75
2024/02/15 13:15:06;;;;;;;1.55;1.15;;;15.90;99.90;;;;;;5097070;28;20476;-75
2024/02/15 13:17:33;;;;;;;1.50;1.40;;;15.80;99.90;;;;;;5092818;28;20527;-75